Weather observations for the past three days for
Las Vegas - Henderson Executive Airport
Imperial (Metric)
Date Time (pdt) Wind (mph) Vis. (mi.) Weather Sky Cond. Temperature (ºF) Relative Humidity Wind Chill (°F) Heat Index (°F) Pressure Precipitation (in)
Air Dwpt 6 hour altimeter (in) sea level (mb) 1 hr 3 hr 6 hr
Max. Min.
05 12:56 W 7 10.00 Mostly Cloudy BKN080 70 30.9 23% 29.85 1011.1
05 11:56 Vrbl 7 10.00 Fair CLR 68 30.9 25% 29.87 1011.6
05 10:56 Vrbl 3 G 17 10.00 A Few Clouds FEW070 68 33.1 68 54 27% 29.87 1011.6
05 09:56 S 12 10.00 Fair CLR 66 34 30% 29.87 1011.5
05 08:56 SW 16 10.00 Fair CLR 61 35.1 38% 29.87 1011.8
05 07:56 S 10 10.00 Fair CLR 60.1 37 42% 29.87 1011.7
05 06:56 SW 15 10.00 Fair CLR 57 37 47% 29.85 1011.2
05 05:56 S 14 10.00 Fair CLR 55 36 49% 29.84 1010.8
05 04:56 S 12 10.00 Fair CLR 54 36 63 54 51% 29.84 1010.7
05 03:56 S 9 10.00 Fair CLR 55 35.1 47% 29.84 1010.5
05 02:56 S 8 10.00 Fair CLR 55.9 35.1 46% 29.84 1010.7
05 01:56 S 13 10.00 Fair CLR 57.9 36 44% 29.84 1010.6
05 00:56 S 8 10.00 Fair CLR 59 35.1 41% 29.85 1010.9
04 23:56 SW 14 10.00 Fair CLR 60.1 34 38% 29.85 1010.8
04 22:56 SW 12 10.00 Fair CLR 63 33.1 73.9 63 33% 29.84 1010.6
04 21:56 SW 7 10.00 Fair CLR 64.9 32 29% 29.84 1010.5
04 20:56 SW 13 10.00 Fair CLR 66.9 30.9 26% 29.82 1009.7
04 19:56 SW 13 10.00 Fair CLR 69.1 30 23% 29.78 1008.6
04 18:56 SW 15 10.00 Fair CLR 71.1 27 19% 29.78 1008.4
04 17:56 SW 17 G 24 10.00 Fair CLR 73.9 27 17% 29.78 1008.2
04 16:56 W 18 G 22 10.00 Fair CLR 73 26.1 75.9 68 17% 29.78 1008.4
04 15:56 SW 24 G 28 10.00 Fair and Breezy CLR 75.9 21 13% 76 29.79 1008.1
04 14:56 SW 15 G 24 10.00 Fair CLR 75.9 19 12% 75 29.8 1008.7
04 13:56 SW 17 G 25 10.00 Fair CLR 75.9 19.9 12% 76 29.82 1009.3
04 12:56 SW 17 G 28 10.00 Fair CLR 73.9 25 16% 29.83 1009.8
04 11:56 SW 20 G 28 10.00 Fair CLR 72 30 21% 29.84 1010.1
04 10:56 SW 17 G 25 10.00 Fair CLR 68 35.1 68 60.1 30% 29.86 1010.6
04 09:56 SW 18 10.00 Fair CLR 66.9 37 33% 29.84 1010.1
04 08:56 SW 14 10.00 Fair CLR 64 37.9 38% 29.84 1010.2
04 07:56 SW 16 10.00 Fair CLR 62.1 37.9 41% 29.83 1009.8
04 06:56 S 14 10.00 Fair CLR 61 37.9 43% 29.82 1009.3
04 05:56 S 21 10.00 Fair and Breezy CLR 61 37.9 43% 29.79 1008.3
04 04:56 S 10 10.00 Fair CLR 63 37 75 63 38% 29.79 1008.1
04 03:56 SW 17 10.00 Fair CLR 64.9 37.9 37% 29.79 1008.0
04 02:56 S 15 10.00 Fair CLR 66 37.9 36% 29.8 1008.2
04 01:56 S 15 G 18 10.00 A Few Clouds FEW100 68 36 31% 29.8 1008.4
04 00:56 SW 14 10.00 Fair CLR 70 32 25% 29.78 1007.4
03 22:56 SW 13 10.00 Fair CLR 75 21 89.1 75 13% 75 29.75 1006.5
03 21:56 SW 15 10.00 Fair CLR 75.9 21 13% 76 29.75 1006.4
03 20:56 SW 9 10.00 Fair CLR 78.1 28 16% 77 29.74 1006.2
03 19:56 S 21 10.00 Fair and Breezy CLR 81 24.1 12% 79 29.71 1005.0
03 18:56 S 13 10.00 Fair CLR 82.9 25 12% 80 29.7 1005.0
03 17:56 SW 22 10.00 Fair and Breezy CLR 84.9 24.1 11% 82 29.7 1005.2
03 16:56 SW 21 G 29 10.00 Fair and Breezy CLR 89.1 24.1 91 82 9% 85 29.7 1005.0
03 15:56 S 21 G 28 10.00 Fair and Breezy CLR 87.1 27 11% 84 29.71 1005.5
03 14:56 S 18 G 25 10.00 Fair CLR 86 28 12% 83 29.75 1006.8
03 13:56 S 23 G 30 10.00 Fair and Breezy CLR 88 28 11% 84 29.77 1007.4
03 12:56 S 22 G 35 10.00 Fair and Breezy CLR 87.1 26.1 11% 84 29.8 1008.5
03 10:56 Vrbl 7 10.00 Fair CLR 81 18 81 57.9 9% 79 29.88 1011.1
03 09:56 Calm 10.00 Fair CLR 78.1 12 8% 77 29.9 1011.9
03 08:56 Calm 10.00 Fair CLR 75 12.9 9% 74 29.91 1012.3
03 07:56 S 3 10.00 Fair CLR 70 14 11% 29.91 1012.3
03 06:56 S 5 10.00 Fair CLR 62.1 18 18% 29.91 1012.4
03 05:56 S 3 10.00 Fair CLR 59 16 18% 29.89 1011.8
03 04:56 S 6 10.00 Fair CLR 60.1 10.9 68 59 14% 29.88 1011.5
03 03:56 S 7 10.00 Fair CLR 59 14 17% 29.89 1011.7
03 02:56 S 9 10.00 Fair CLR 59 16 18% 29.89 1011.8
03 01:56 S 5 10.00 Fair CLR 62.1 17.1 17% 29.89 1011.9
03 00:56 S 8 10.00 Fair CLR 63 16 16% 29.91 1012.4
02 23:56 S 7 10.00 Fair CLR 66 12 12% 29.92 1012.6
02 22:56 S 6 10.00 Fair CLR 68 10 84 66.9 10% 29.92 1012.6
02 21:56 S 8 10.00 Fair CLR 70 14 11% 29.92 1012.6
02 20:56 SE 5 10.00 Fair CLR 73 15.1 11% 29.9 1012.1
02 19:56 Calm 10.00 Fair CLR 79 12 8% 77 29.88 1011.4
02 18:56 N 6 10.00 Fair CLR 82 9 6% 80 29.88 1011.4
02 17:56 Vrbl 5 10.00 Fair CLR 84 10 6% 81 29.89 1011.8
02 16:56 NW 6 10.00 Fair CLR 84 9 84.9 78.1 6% 81 29.9 1012.3
02 15:56 NW 5 10.00 Fair CLR 84 9 6% 81 29.92 1012.8
02 14:56 Vrbl 6 10.00 Fair CLR 84.9 10 6% 82 29.95 1013.9
02 13:56 N 7 10.00 Fair CLR 82.9 12.9 7% 80 29.98 1014.9
Date Time (pdt) Wind (mph) Vis. (mi.) Weather Sky Cond. Air Dwpt Max. Min. Relative Humidity Wind Chill (°F) Heat Index (°F) altimeter (in) sea level (mb) 1 hr 3 hr 6 hr
6 hour
Temperature (ºF) Pressure Precipitation (in)